Terminal Aerodrome Forecast
Issued by NWS

Home | Current Version | Previous Version | Text Only | Print | Product List | Glossary On
Versions: 1 2 3 4 5 6 7 8 9 10 11 12 13 14 15 16 17
000
FTUS44 KEPZ 282320
TAFDMN
TAF
KDMN 282320Z 2900/2924 28012KT P6SM VCTS SCT060CB BKN120
      TEMPO 2900/2904 VRB20G35KT 1SM TSRA BKN040CB
     FM290600 23006KT P6SM SCT080 BKN200
     FM291500 13005KT P6SM FEW080 SCT200=

USA.gov is the U.S. government's official web portal to all federal, state and local government web resources and services.